sensor_id;sensor_type;location;lat;lon;timestamp;P1;durP1;ratioP1;P2;durP2;ratioP2
4971;SDS011;2501;51.214;6.768;2023-06-22T00:01:25;9.30;;;3.00;;
4971;SDS011;2501;51.214;6.768;2023-06-22T00:03:56;3.10;;;2.80;;
4971;SDS011;2501;51.214;6.768;2023-06-22T00:06:24;3.92;;;2.90;;
4971;SDS011;2501;51.214;6.768;2023-06-22T00:08:53;7.33;;;3.00;;
4971;SDS011;2501;51.214;6.768;2023-06-22T00:11:21;4.32;;;2.97;;
4971;SDS011;2501;51.214;6.768;2023-06-22T00:13:49;5.07;;;2.90;;
4971;SDS011;2501;51.214;6.768;2023-06-22T00:16:18;3.30;;;3.00;;
4971;SDS011;2501;51.214;6.768;2023-06-22T00:18:46;4.10;;;3.30;;
4971;SDS011;2501;51.214;6.768;2023-06-22T00:21:17;5.45;;;3.35;;
4971;SDS011;2501;51.214;6.768;2023-06-22T00:23:46;3.30;;;3.00;;
4971;SDS011;2501;51.214;6.768;2023-06-22T00:26:15;5.23;;;3.50;;
4971;SDS011;2501;51.214;6.768;2023-06-22T00:28:43;4.70;;;3.50;;
4971;SDS011;2501;51.214;6.768;2023-06-22T00:31:12;6.63;;;3.47;;
4971;SDS011;2501;51.214;6.768;2023-06-22T00:33:40;4.65;;;2.90;;
4971;SDS011;2501;51.214;6.768;2023-06-22T00:36:08;3.40;;;2.80;;
4971;SDS011;2501;51.214;6.768;2023-06-22T00:38:41;5.65;;;3.10;;
4971;SDS011;2501;51.214;6.768;2023-06-22T00:41:09;3.30;;;2.90;;
4971;SDS011;2501;51.214;6.768;2023-06-22T00:43:38;4.25;;;2.95;;
4971;SDS011;2501;51.214;6.768;2023-06-22T00:46:07;4.20;;;3.10;;
4971;SDS011;2501;51.214;6.768;2023-06-22T00:48:36;5.70;;;3.10;;
4971;SDS011;2501;51.214;6.768;2023-06-22T00:51:06;4.25;;;3.22;;
4971;SDS011;2501;51.214;6.768;2023-06-22T00:53:35;6.47;;;3.40;;
4971;SDS011;2501;51.214;6.768;2023-06-22T00:56:07;5.40;;;3.60;;
4971;SDS011;2501;51.214;6.768;2023-06-22T00:58:38;6.43;;;3.50;;
4971;SDS011;2501;51.214;6.768;2023-06-22T01:01:07;8.63;;;4.00;;
4971;SDS011;2501;51.214;6.768;2023-06-22T01:03:35;7.07;;;3.60;;
4971;SDS011;2501;51.214;6.768;2023-06-22T01:06:06;5.32;;;3.92;;
4971;SDS011;2501;51.214;6.768;2023-06-22T01:08:40;8.18;;;4.20;;
4971;SDS011;2501;51.214;6.768;2023-06-22T01:11:18;8.40;;;3.78;;
4971;SDS011;2501;51.214;6.768;2023-06-22T01:13:53;6.70;;;3.90;;
4971;SDS011;2501;51.214;6.768;2023-06-22T01:16:31;6.50;;;4.50;;
4971;SDS011;2501;51.214;6.768;2023-06-22T01:19:05;9.20;;;4.63;;
4971;SDS011;2501;51.214;6.768;2023-06-22T01:21:44;6.13;;;4.32;;
4971;SDS011;2501;51.214;6.768;2023-06-22T01:24:15;10.10;;;4.50;;
4971;SDS011;2501;51.214;6.768;2023-06-22T01:26:52;9.47;;;4.80;;
4971;SDS011;2501;51.214;6.768;2023-06-22T01:29:27;4.47;;;4.07;;
4971;SDS011;2501;51.214;6.768;2023-06-22T01:31:58;6.55;;;4.40;;
4971;SDS011;2501;51.214;6.768;2023-06-22T01:34:28;8.88;;;5.80;;
4971;SDS011;2501;51.214;6.768;2023-06-22T01:36:58;6.28;;;4.70;;
4971;SDS011;2501;51.214;6.768;2023-06-22T01:39:28;6.03;;;4.97;;
4971;SDS011;2501;51.214;6.768;2023-06-22T01:41:58;6.13;;;4.85;;
4971;SDS011;2501;51.214;6.768;2023-06-22T01:44:30;7.80;;;5.60;;
4971;SDS011;2501;51.214;6.768;2023-06-22T01:46:59;7.43;;;5.18;;
4971;SDS011;2501;51.214;6.768;2023-06-22T01:49:28;9.00;;;5.60;;
4971;SDS011;2501;51.214;6.768;2023-06-22T01:51:57;6.30;;;5.70;;
4971;SDS011;2501;51.214;6.768;2023-06-22T01:54:26;8.20;;;5.70;;
4971;SDS011;2501;51.214;6.768;2023-06-22T01:56:54;9.07;;;5.50;;
4971;SDS011;2501;51.214;6.768;2023-06-22T01:59:24;11.60;;;6.50;;
4971;SDS011;2501;51.214;6.768;2023-06-22T02:02:01;11.20;;;6.20;;
4971;SDS011;2501;51.214;6.768;2023-06-22T02:04:34;7.80;;;5.80;;
4971;SDS011;2501;51.214;6.768;2023-06-22T02:07:09;6.83;;;6.13;;
4971;SDS011;2501;51.214;6.768;2023-06-22T02:09:42;9.23;;;5.70;;
4971;SDS011;2501;51.214;6.768;2023-06-22T02:12:12;8.70;;;5.53;;
4971;SDS011;2501;51.214;6.768;2023-06-22T02:14:44;12.23;;;5.40;;
4971;SDS011;2501;51.214;6.768;2023-06-22T02:17:17;7.85;;;5.90;;
4971;SDS011;2501;51.214;6.768;2023-06-22T02:19:46;7.38;;;6.22;;
4971;SDS011;2501;51.214;6.768;2023-06-22T02:22:14;6.38;;;5.75;;
4971;SDS011;2501;51.214;6.768;2023-06-22T02:24:43;8.40;;;6.00;;
4971;SDS011;2501;51.214;6.768;2023-06-22T02:27:11;11.90;;;6.10;;
4971;SDS011;2501;51.214;6.768;2023-06-22T02:29:40;8.00;;;6.05;;
4971;SDS011;2501;51.214;6.768;2023-06-22T02:32:08;8.90;;;5.80;;
4971;SDS011;2501;51.214;6.768;2023-06-22T02:34:39;11.25;;;6.50;;
4971;SDS011;2501;51.214;6.768;2023-06-22T02:37:08;9.98;;;6.43;;
4971;SDS011;2501;51.214;6.768;2023-06-22T02:39:38;11.88;;;6.50;;
4971;SDS011;2501;51.214;6.768;2023-06-22T02:42:06;6.72;;;6.03;;
4971;SDS011;2501;51.214;6.768;2023-06-22T02:44:35;14.85;;;7.45;;
4971;SDS011;2501;51.214;6.768;2023-06-22T02:47:04;9.40;;;6.40;;
4971;SDS011;2501;51.214;6.768;2023-06-22T02:49:33;11.20;;;6.80;;
4971;SDS011;2501;51.214;6.768;2023-06-22T02:52:04;11.20;;;7.00;;
4971;SDS011;2501;51.214;6.768;2023-06-22T02:54:32;13.40;;;7.15;;
4971;SDS011;2501;51.214;6.768;2023-06-22T02:57:01;9.90;;;7.20;;
4971;SDS011;2501;51.214;6.768;2023-06-22T02:59:29;10.80;;;7.57;;
4971;SDS011;2501;51.214;6.768;2023-06-22T03:01:58;8.93;;;7.18;;
4971;SDS011;2501;51.214;6.768;2023-06-22T03:04:27;9.35;;;6.55;;
4971;SDS011;2501;51.214;6.768;2023-06-22T03:06:56;10.07;;;6.80;;
4971;SDS011;2501;51.214;6.768;2023-06-22T03:09:29;9.15;;;6.90;;
4971;SDS011;2501;51.214;6.768;2023-06-22T03:11:57;10.20;;;7.18;;
4971;SDS011;2501;51.214;6.768;2023-06-22T03:14:27;12.25;;;8.00;;
4971;SDS011;2501;51.214;6.768;2023-06-22T03:16:55;13.95;;;7.35;;
4971;SDS011;2501;51.214;6.768;2023-06-22T03:19:26;8.00;;;7.20;;
4971;SDS011;2501;51.214;6.768;2023-06-22T03:21:56;9.83;;;7.80;;
4971;SDS011;2501;51.214;6.768;2023-06-22T03:24:25;10.37;;;7.27;;
4971;SDS011;2501;51.214;6.768;2023-06-22T03:26:56;16.55;;;7.13;;
4971;SDS011;2501;51.214;6.768;2023-06-22T03:29:25;12.85;;;7.95;;
4971;SDS011;2501;51.214;6.768;2023-06-22T03:31:54;12.57;;;8.20;;
4971;SDS011;2501;51.214;6.768;2023-06-22T03:34:22;9.32;;;7.68;;
4971;SDS011;2501;51.214;6.768;2023-06-22T03:36:51;14.07;;;8.35;;
4971;SDS011;2501;51.214;6.768;2023-06-22T03:39:19;12.55;;;8.13;;
4971;SDS011;2501;51.214;6.768;2023-06-22T03:41:48;9.32;;;8.00;;
4971;SDS011;2501;51.214;6.768;2023-06-22T03:44:19;11.03;;;8.23;;
4971;SDS011;2501;51.214;6.768;2023-06-22T03:46:47;9.95;;;7.97;;
4971;SDS011;2501;51.214;6.768;2023-06-22T03:49:15;15.45;;;8.30;;
4971;SDS011;2501;51.214;6.768;2023-06-22T03:51:44;9.82;;;7.72;;
4971;SDS011;2501;51.214;6.768;2023-06-22T03:54:12;13.87;;;7.80;;
4971;SDS011;2501;51.214;6.768;2023-06-22T03:56:41;11.90;;;8.03;;
4971;SDS011;2501;51.214;6.768;2023-06-22T03:59:09;14.68;;;8.05;;
4971;SDS011;2501;51.214;6.768;2023-06-22T04:01:40;12.32;;;8.13;;
4971;SDS011;2501;51.214;6.768;2023-06-22T04:04:09;15.23;;;8.65;;
4971;SDS011;2501;51.214;6.768;2023-06-22T04:06:38;13.93;;;8.10;;
4971;SDS011;2501;51.214;6.768;2023-06-22T04:09:06;8.80;;;7.90;;
4971;SDS011;2501;51.214;6.768;2023-06-22T04:11:35;14.82;;;8.38;;
4971;SDS011;2501;51.214;6.768;2023-06-22T04:14:03;12.75;;;9.00;;
4971;SDS011;2501;51.214;6.768;2023-06-22T04:16:31;12.25;;;8.75;;
4971;SDS011;2501;51.214;6.768;2023-06-22T04:19:03;13.52;;;8.25;;
4971;SDS011;2501;51.214;6.768;2023-06-22T04:21:31;13.10;;;9.10;;
4971;SDS011;2501;51.214;6.768;2023-06-22T04:24:00;13.03;;;7.97;;
4971;SDS011;2501;51.214;6.768;2023-06-22T04:26:28;14.93;;;8.30;;
4971;SDS011;2501;51.214;6.768;2023-06-22T04:29:02;14.45;;;8.25;;
4971;SDS011;2501;51.214;6.768;2023-06-22T04:31:30;11.18;;;8.30;;
4971;SDS011;2501;51.214;6.768;2023-06-22T04:34:05;11.55;;;7.90;;
4971;SDS011;2501;51.214;6.768;2023-06-22T04:36:34;11.68;;;8.98;;
4971;SDS011;2501;51.214;6.768;2023-06-22T04:39:05;12.38;;;8.40;;
4971;SDS011;2501;51.214;6.768;2023-06-22T04:41:34;8.70;;;7.78;;
4971;SDS011;2501;51.214;6.768;2023-06-22T04:44:09;12.02;;;8.43;;
4971;SDS011;2501;51.214;6.768;2023-06-22T04:46:38;12.02;;;8.25;;
4971;SDS011;2501;51.214;6.768;2023-06-22T04:49:09;11.40;;;7.90;;
4971;SDS011;2501;51.214;6.768;2023-06-22T04:51:39;17.58;;;8.40;;
4971;SDS011;2501;51.214;6.768;2023-06-22T04:54:09;11.07;;;8.40;;
4971;SDS011;2501;51.214;6.768;2023-06-22T04:56:37;12.88;;;7.85;;
4971;SDS011;2501;51.214;6.768;2023-06-22T04:59:06;17.75;;;8.18;;
4971;SDS011;2501;51.214;6.768;2023-06-22T05:01:38;10.98;;;7.35;;
4971;SDS011;2501;51.214;6.768;2023-06-22T05:04:09;11.35;;;7.93;;
4971;SDS011;2501;51.214;6.768;2023-06-22T05:06:38;15.35;;;7.53;;
4971;SDS011;2501;51.214;6.768;2023-06-22T05:09:06;9.90;;;7.05;;
4971;SDS011;2501;51.214;6.768;2023-06-22T05:11:35;12.05;;;7.75;;
4971;SDS011;2501;51.214;6.768;2023-06-22T05:14:03;15.07;;;8.80;;
4971;SDS011;2501;51.214;6.768;2023-06-22T05:16:32;15.65;;;7.85;;
4971;SDS011;2501;51.214;6.768;2023-06-22T05:19:01;10.27;;;7.60;;
4971;SDS011;2501;51.214;6.768;2023-06-22T05:21:32;13.25;;;6.65;;
4971;SDS011;2501;51.214;6.768;2023-06-22T05:24:01;30.03;;;9.93;;
4971;SDS011;2501;51.214;6.768;2023-06-22T05:26:29;16.27;;;6.83;;
4971;SDS011;2501;51.214;6.768;2023-06-22T05:28:59;15.47;;;8.10;;
4971;SDS011;2501;51.214;6.768;2023-06-22T05:31:29;11.93;;;7.63;;
4971;SDS011;2501;51.214;6.768;2023-06-22T05:33:58;12.30;;;7.40;;
4971;SDS011;2501;51.214;6.768;2023-06-22T05:36:27;9.25;;;7.20;;
4971;SDS011;2501;51.214;6.768;2023-06-22T05:38:58;14.00;;;7.40;;
4971;SDS011;2501;51.214;6.768;2023-06-22T05:41:27;15.90;;;7.40;;
4971;SDS011;2501;51.214;6.768;2023-06-22T05:43:55;11.07;;;8.00;;
4971;SDS011;2501;51.214;6.768;2023-06-22T05:46:24;10.60;;;7.50;;
4971;SDS011;2501;51.214;6.768;2023-06-22T05:48:52;13.15;;;7.47;;
4971;SDS011;2501;51.214;6.768;2023-06-22T05:51:21;8.85;;;7.78;;
4971;SDS011;2501;51.214;6.768;2023-06-22T05:53:50;14.63;;;6.93;;
4971;SDS011;2501;51.214;6.768;2023-06-22T05:56:22;12.10;;;6.90;;
4971;SDS011;2501;51.214;6.768;2023-06-22T05:58:50;13.10;;;7.32;;
4971;SDS011;2501;51.214;6.768;2023-06-22T06:01:19;14.60;;;7.85;;
4971;SDS011;2501;51.214;6.768;2023-06-22T06:03:48;17.20;;;7.53;;
4971;SDS011;2501;51.214;6.768;2023-06-22T06:06:17;18.60;;;8.90;;
4971;SDS011;2501;51.214;6.768;2023-06-22T06:08:46;20.57;;;9.00;;
4971;SDS011;2501;51.214;6.768;2023-06-22T06:11:14;16.50;;;8.83;;
4971;SDS011;2501;51.214;6.768;2023-06-22T06:13:45;13.35;;;8.45;;
4971;SDS011;2501;51.214;6.768;2023-06-22T06:16:14;13.50;;;7.80;;
4971;SDS011;2501;51.214;6.768;2023-06-22T06:18:42;16.80;;;8.20;;
4971;SDS011;2501;51.214;6.768;2023-06-22T06:21:11;10.88;;;7.85;;
4971;SDS011;2501;51.214;6.768;2023-06-22T06:23:39;11.25;;;7.80;;
4971;SDS011;2501;51.214;6.768;2023-06-22T06:26:07;15.52;;;8.10;;
4971;SDS011;2501;51.214;6.768;2023-06-22T06:28:36;10.75;;;7.20;;
4971;SDS011;2501;51.214;6.768;2023-06-22T06:31:09;17.98;;;7.32;;
4971;SDS011;2501;51.214;6.768;2023-06-22T06:33:42;20.45;;;7.43;;
4971;SDS011;2501;51.214;6.768;2023-06-22T06:36:10;9.37;;;6.80;;
4971;SDS011;2501;51.214;6.768;2023-06-22T06:38:39;14.20;;;8.13;;
4971;SDS011;2501;51.214;6.768;2023-06-22T06:41:07;14.73;;;8.63;;
4971;SDS011;2501;51.214;6.768;2023-06-22T06:43:35;15.55;;;8.48;;
4971;SDS011;2501;51.214;6.768;2023-06-22T06:46:04;10.85;;;7.22;;
4971;SDS011;2501;51.214;6.768;2023-06-22T06:48:35;15.17;;;7.93;;
4971;SDS011;2501;51.214;6.768;2023-06-22T06:51:04;15.73;;;8.35;;
4971;SDS011;2501;51.214;6.768;2023-06-22T06:53:34;10.45;;;8.38;;
4971;SDS011;2501;51.214;6.768;2023-06-22T06:56:02;13.48;;;8.73;;
4971;SDS011;2501;51.214;6.768;2023-06-22T06:58:32;17.90;;;9.32;;
4971;SDS011;2501;51.214;6.768;2023-06-22T07:01:01;18.23;;;9.73;;
4971;SDS011;2501;51.214;6.768;2023-06-22T07:03:30;12.00;;;8.60;;
4971;SDS011;2501;51.214;6.768;2023-06-22T07:06:01;12.18;;;9.55;;
4971;SDS011;2501;51.214;6.768;2023-06-22T07:08:29;20.92;;;9.35;;
4971;SDS011;2501;51.214;6.768;2023-06-22T07:10:58;15.13;;;9.93;;
4971;SDS011;2501;51.214;6.768;2023-06-22T07:13:27;16.80;;;9.65;;
4971;SDS011;2501;51.214;6.768;2023-06-22T07:15:56;12.48;;;9.50;;
4971;SDS011;2501;51.214;6.768;2023-06-22T07:18:24;19.33;;;9.70;;
4971;SDS011;2501;51.214;6.768;2023-06-22T07:20:53;11.80;;;9.43;;
4971;SDS011;2501;51.214;6.768;2023-06-22T07:23:24;16.40;;;9.57;;
4971;SDS011;2501;51.214;6.768;2023-06-22T07:25:53;23.60;;;9.83;;
4971;SDS011;2501;51.214;6.768;2023-06-22T07:28:21;13.95;;;9.45;;
4971;SDS011;2501;51.214;6.768;2023-06-22T07:30:50;16.23;;;10.43;;
4971;SDS011;2501;51.214;6.768;2023-06-22T07:33:19;16.35;;;10.25;;
4971;SDS011;2501;51.214;6.768;2023-06-22T07:35:47;21.92;;;11.20;;
4971;SDS011;2501;51.214;6.768;2023-06-22T07:38:17;19.85;;;11.23;;
4971;SDS011;2501;51.214;6.768;2023-06-22T07:40:48;19.42;;;11.60;;
4971;SDS011;2501;51.214;6.768;2023-06-22T07:43:18;14.55;;;10.85;;
4971;SDS011;2501;51.214;6.768;2023-06-22T07:45:48;16.13;;;10.50;;
4971;SDS011;2501;51.214;6.768;2023-06-22T07:48:19;17.60;;;10.95;;
4971;SDS011;2501;51.214;6.768;2023-06-22T07:50:49;17.80;;;10.93;;
4971;SDS011;2501;51.214;6.768;2023-06-22T07:53:18;16.38;;;11.20;;
4971;SDS011;2501;51.214;6.768;2023-06-22T07:55:49;15.35;;;10.55;;
4971;SDS011;2501;51.214;6.768;2023-06-22T07:58:17;19.10;;;10.55;;
4971;SDS011;2501;51.214;6.768;2023-06-22T08:00:46;13.10;;;9.13;;
4971;SDS011;2501;51.214;6.768;2023-06-22T08:03:16;13.07;;;9.13;;
4971;SDS011;2501;51.214;6.768;2023-06-22T08:05:44;13.93;;;9.85;;
4971;SDS011;2501;51.214;6.768;2023-06-22T08:08:14;14.20;;;9.07;;
4971;SDS011;2501;51.214;6.768;2023-06-22T08:10:42;12.10;;;9.17;;
4971;SDS011;2501;51.214;6.768;2023-06-22T08:13:13;13.20;;;9.80;;
4971;SDS011;2501;51.214;6.768;2023-06-22T08:15:42;19.92;;;8.95;;
4971;SDS011;2501;51.214;6.768;2023-06-22T08:18:10;15.88;;;9.00;;
4971;SDS011;2501;51.214;6.768;2023-06-22T08:20:39;9.73;;;8.65;;
4971;SDS011;2501;51.214;6.768;2023-06-22T08:23:08;11.27;;;8.50;;
4971;SDS011;2501;51.214;6.768;2023-06-22T08:25:36;16.13;;;8.98;;
4971;SDS011;2501;51.214;6.768;2023-06-22T08:28:05;11.50;;;8.57;;
4971;SDS011;2501;51.214;6.768;2023-06-22T08:30:36;13.30;;;9.05;;
4971;SDS011;2501;51.214;6.768;2023-06-22T08:33:04;14.73;;;9.00;;
4971;SDS011;2501;51.214;6.768;2023-06-22T08:35:33;15.43;;;8.10;;
4971;SDS011;2501;51.214;6.768;2023-06-22T08:38:01;10.43;;;8.50;;
4971;SDS011;2501;51.214;6.768;2023-06-22T08:40:29;8.48;;;7.68;;
4971;SDS011;2501;51.214;6.768;2023-06-22T08:42:58;14.57;;;8.73;;
4971;SDS011;2501;51.214;6.768;2023-06-22T08:45:26;14.32;;;9.07;;
4971;SDS011;2501;51.214;6.768;2023-06-22T08:47:57;13.32;;;9.00;;
4971;SDS011;2501;51.214;6.768;2023-06-22T08:50:26;11.45;;;8.60;;
4971;SDS011;2501;51.214;6.768;2023-06-22T08:52:55;10.60;;;7.97;;
4971;SDS011;2501;51.214;6.768;2023-06-22T08:55:23;12.57;;;8.52;;
4971;SDS011;2501;51.214;6.768;2023-06-22T08:57:52;18.10;;;7.93;;
4971;SDS011;2501;51.214;6.768;2023-06-22T09:00:20;9.02;;;6.90;;
4971;SDS011;2501;51.214;6.768;2023-06-22T09:02:49;12.10;;;6.82;;
4971;SDS011;2501;51.214;6.768;2023-06-22T09:05:20;13.17;;;7.07;;
4971;SDS011;2501;51.214;6.768;2023-06-22T09:07:48;7.88;;;6.53;;
4971;SDS011;2501;51.214;6.768;2023-06-22T09:10:17;8.85;;;6.13;;
4971;SDS011;2501;51.214;6.768;2023-06-22T09:12:45;6.40;;;5.70;;
4971;SDS011;2501;51.214;6.768;2023-06-22T09:15:14;8.90;;;6.25;;
4971;SDS011;2501;51.214;6.768;2023-06-22T09:17:42;7.60;;;6.80;;
4971;SDS011;2501;51.214;6.768;2023-06-22T09:20:11;15.20;;;10.55;;
4971;SDS011;2501;51.214;6.768;2023-06-22T09:22:43;8.70;;;6.00;;
4971;SDS011;2501;51.214;6.768;2023-06-22T09:25:12;12.82;;;6.80;;
4971;SDS011;2501;51.214;6.768;2023-06-22T09:27:40;10.65;;;7.00;;
4971;SDS011;2501;51.214;6.768;2023-06-22T09:30:09;8.40;;;6.90;;
4971;SDS011;2501;51.214;6.768;2023-06-22T09:32:38;9.07;;;7.32;;
4971;SDS011;2501;51.214;6.768;2023-06-22T09:35:07;9.45;;;6.90;;
4971;SDS011;2501;51.214;6.768;2023-06-22T09:37:38;6.78;;;6.07;;
4971;SDS011;2501;51.214;6.768;2023-06-22T09:40:10;9.48;;;6.50;;
4971;SDS011;2501;51.214;6.768;2023-06-22T09:42:41;6.35;;;5.40;;
4971;SDS011;2501;51.214;6.768;2023-06-22T09:45:10;7.00;;;4.68;;
4971;SDS011;2501;51.214;6.768;2023-06-22T09:47:39;5.33;;;4.90;;
4971;SDS011;2501;51.214;6.768;2023-06-22T09:50:07;5.70;;;5.10;;
4971;SDS011;2501;51.214;6.768;2023-06-22T09:52:38;10.10;;;5.95;;
4971;SDS011;2501;51.214;6.768;2023-06-22T09:55:12;8.48;;;5.35;;
4971;SDS011;2501;51.214;6.768;2023-06-22T09:57:41;6.10;;;5.40;;
4971;SDS011;2501;51.214;6.768;2023-06-22T10:00:10;6.15;;;5.53;;
4971;SDS011;2501;51.214;6.768;2023-06-22T10:02:40;9.13;;;5.87;;
4971;SDS011;2501;51.214;6.768;2023-06-22T10:05:09;10.30;;;6.13;;
4971;SDS011;2501;51.214;6.768;2023-06-22T10:07:38;11.50;;;6.10;;
4971;SDS011;2501;51.214;6.768;2023-06-22T10:10:08;6.77;;;6.07;;
4971;SDS011;2501;51.214;6.768;2023-06-22T10:12:40;9.93;;;6.45;;
4971;SDS011;2501;51.214;6.768;2023-06-22T10:15:10;12.53;;;6.40;;
4971;SDS011;2501;51.214;6.768;2023-06-22T10:17:39;8.52;;;5.70;;
4971;SDS011;2501;51.214;6.768;2023-06-22T10:20:08;10.52;;;6.50;;
4971;SDS011;2501;51.214;6.768;2023-06-22T10:22:39;9.43;;;6.32;;
4971;SDS011;2501;51.214;6.768;2023-06-22T10:25:08;12.02;;;6.75;;
4971;SDS011;2501;51.214;6.768;2023-06-22T10:27:40;8.05;;;7.05;;
4971;SDS011;2501;51.214;6.768;2023-06-22T10:30:09;21.38;;;8.07;;
4971;SDS011;2501;51.214;6.768;2023-06-22T10:32:40;9.73;;;7.63;;
4971;SDS011;2501;51.214;6.768;2023-06-22T10:35:09;11.70;;;7.82;;
4971;SDS011;2501;51.214;6.768;2023-06-22T10:37:41;8.75;;;7.20;;
4971;SDS011;2501;51.214;6.768;2023-06-22T10:40:10;10.85;;;8.73;;
4971;SDS011;2501;51.214;6.768;2023-06-22T10:42:42;9.23;;;8.18;;
4971;SDS011;2501;51.214;6.768;2023-06-22T10:45:11;11.70;;;8.88;;
4971;SDS011;2501;51.214;6.768;2023-06-22T10:47:39;11.60;;;7.17;;
4971;SDS011;2501;51.214;6.768;2023-06-22T10:50:09;14.73;;;9.00;;
4971;SDS011;2501;51.214;6.768;2023-06-22T10:52:37;10.52;;;7.97;;
4971;SDS011;2501;51.214;6.768;2023-06-22T10:55:07;13.80;;;9.50;;
4971;SDS011;2501;51.214;6.768;2023-06-22T10:57:36;15.43;;;11.02;;
4971;SDS011;2501;51.214;6.768;2023-06-22T11:00:10;19.70;;;12.40;;
4971;SDS011;2501;51.214;6.768;2023-06-22T11:02:39;21.00;;;13.32;;
4971;SDS011;2501;51.214;6.768;2023-06-22T11:05:08;24.95;;;15.20;;
4971;SDS011;2501;51.214;6.768;2023-06-22T11:07:37;28.65;;;16.20;;
4971;SDS011;2501;51.214;6.768;2023-06-22T11:10:06;23.93;;;16.33;;
4971;SDS011;2501;51.214;6.768;2023-06-22T11:12:35;33.20;;;18.03;;
4971;SDS011;2501;51.214;6.768;2023-06-22T11:15:04;26.20;;;17.13;;
4971;SDS011;2501;51.214;6.768;2023-06-22T11:17:36;20.40;;;15.23;;
4971;SDS011;2501;51.214;6.768;2023-06-22T11:20:05;24.23;;;17.00;;
4971;SDS011;2501;51.214;6.768;2023-06-22T11:22:36;24.73;;;17.08;;
4971;SDS011;2501;51.214;6.768;2023-06-22T11:25:05;22.45;;;16.75;;
4971;SDS011;2501;51.214;6.768;2023-06-22T11:27:34;24.30;;;17.90;;
4971;SDS011;2501;51.214;6.768;2023-06-22T11:30:03;29.50;;;18.58;;
4971;SDS011;2501;51.214;6.768;2023-06-22T11:32:32;31.65;;;19.02;;
4971;SDS011;2501;51.214;6.768;2023-06-22T11:35:04;28.85;;;19.48;;
4971;SDS011;2501;51.214;6.768;2023-06-22T11:37:32;28.77;;;21.10;;
4971;SDS011;2501;51.214;6.768;2023-06-22T11:40:01;42.30;;;26.25;;
4971;SDS011;2501;51.214;6.768;2023-06-22T11:42:32;46.72;;;27.40;;
4971;SDS011;2501;51.214;6.768;2023-06-22T11:45:00;42.13;;;26.05;;
4971;SDS011;2501;51.214;6.768;2023-06-22T11:47:29;36.80;;;24.83;;
4971;SDS011;2501;51.214;6.768;2023-06-22T11:49:58;41.60;;;24.58;;
4971;SDS011;2501;51.214;6.768;2023-06-22T11:52:29;35.77;;;24.93;;
4971;SDS011;2501;51.214;6.768;2023-06-22T11:54:57;37.67;;;24.95;;
4971;SDS011;2501;51.214;6.768;2023-06-22T11:57:28;36.40;;;23.80;;
4971;SDS011;2501;51.214;6.768;2023-06-22T11:59:57;32.78;;;22.60;;
4971;SDS011;2501;51.214;6.768;2023-06-22T12:02:25;34.30;;;23.98;;
4971;SDS011;2501;51.214;6.768;2023-06-22T12:04:54;24.13;;;18.48;;
4971;SDS011;2501;51.214;6.768;2023-06-22T12:07:23;29.67;;;19.52;;
4971;SDS011;2501;51.214;6.768;2023-06-22T12:09:54;26.85;;;19.38;;
4971;SDS011;2501;51.214;6.768;2023-06-22T12:12:22;27.98;;;19.30;;
4971;SDS011;2501;51.214;6.768;2023-06-22T12:14:51;26.33;;;20.05;;
4971;SDS011;2501;51.214;6.768;2023-06-22T12:17:19;27.38;;;20.88;;
4971;SDS011;2501;51.214;6.768;2023-06-22T12:19:48;31.00;;;23.02;;
4971;SDS011;2501;51.214;6.768;2023-06-22T12:22:16;36.97;;;25.23;;
4971;SDS011;2501;51.214;6.768;2023-06-22T12:24:44;42.45;;;25.27;;
4971;SDS011;2501;51.214;6.768;2023-06-22T12:27:16;34.53;;;24.87;;
4971;SDS011;2501;51.214;6.768;2023-06-22T12:29:46;36.83;;;26.40;;
4971;SDS011;2501;51.214;6.768;2023-06-22T12:32:15;39.35;;;28.02;;
4971;SDS011;2501;51.214;6.768;2023-06-22T12:34:44;47.10;;;27.38;;
4971;SDS011;2501;51.214;6.768;2023-06-22T12:37:12;39.15;;;28.25;;
4971;SDS011;2501;51.214;6.768;2023-06-22T12:39:41;44.38;;;27.98;;
4971;SDS011;2501;51.214;6.768;2023-06-22T12:42:10;41.95;;;26.63;;
4971;SDS011;2501;51.214;6.768;2023-06-22T12:44:41;41.53;;;28.33;;
4971;SDS011;2501;51.214;6.768;2023-06-22T12:47:10;44.15;;;26.60;;
4971;SDS011;2501;51.214;6.768;2023-06-22T12:49:38;37.23;;;26.87;;
4971;SDS011;2501;51.214;6.768;2023-06-22T12:52:08;44.47;;;25.85;;
4971;SDS011;2501;51.214;6.768;2023-06-22T12:54:38;45.33;;;27.10;;
4971;SDS011;2501;51.214;6.768;2023-06-22T12:57:06;60.47;;;29.23;;
4971;SDS011;2501;51.214;6.768;2023-06-22T12:59:34;46.15;;;27.48;;
4971;SDS011;2501;51.214;6.768;2023-06-22T13:02:06;42.17;;;26.67;;
4971;SDS011;2501;51.214;6.768;2023-06-22T13:04:34;54.15;;;28.35;;
4971;SDS011;2501;51.214;6.768;2023-06-22T13:07:03;43.78;;;25.88;;
4971;SDS011;2501;51.214;6.768;2023-06-22T13:09:31;52.40;;;26.52;;
4971;SDS011;2501;51.214;6.768;2023-06-22T13:12:00;36.88;;;24.70;;
4971;SDS011;2501;51.214;6.768;2023-06-22T13:14:28;35.38;;;23.98;;
4971;SDS011;2501;51.214;6.768;2023-06-22T13:16:57;48.40;;;25.92;;
4971;SDS011;2501;51.214;6.768;2023-06-22T13:19:28;34.87;;;23.90;;
4971;SDS011;2501;51.214;6.768;2023-06-22T13:21:57;41.78;;;25.17;;
4971;SDS011;2501;51.214;6.768;2023-06-22T13:24:27;38.67;;;25.38;;
4971;SDS011;2501;51.214;6.768;2023-06-22T13:26:56;42.00;;;25.88;;
4971;SDS011;2501;51.214;6.768;2023-06-22T13:29:24;51.42;;;26.98;;
4971;SDS011;2501;51.214;6.768;2023-06-22T13:31:52;34.53;;;23.55;;
4971;SDS011;2501;51.214;6.768;2023-06-22T13:34:22;36.47;;;24.50;;
4971;SDS011;2501;51.214;6.768;2023-06-22T13:36:53;36.85;;;25.70;;
4971;SDS011;2501;51.214;6.768;2023-06-22T13:39:21;38.75;;;26.20;;
4971;SDS011;2501;51.214;6.768;2023-06-22T13:41:50;40.22;;;27.30;;
4971;SDS011;2501;51.214;6.768;2023-06-22T13:44:18;36.40;;;25.70;;
4971;SDS011;2501;51.214;6.768;2023-06-22T13:46:47;36.00;;;23.00;;
4971;SDS011;2501;51.214;6.768;2023-06-22T13:49:15;35.50;;;24.95;;
4971;SDS011;2501;51.214;6.768;2023-06-22T13:51:44;39.53;;;24.02;;
4971;SDS011;2501;51.214;6.768;2023-06-22T13:54:15;31.63;;;22.33;;
4971;SDS011;2501;51.214;6.768;2023-06-22T13:56:44;35.08;;;24.65;;
4971;SDS011;2501;51.214;6.768;2023-06-22T13:59:12;35.38;;;24.25;;
4971;SDS011;2501;51.214;6.768;2023-06-22T14:01:41;31.73;;;21.63;;
4971;SDS011;2501;51.214;6.768;2023-06-22T14:04:09;32.80;;;22.60;;
4971;SDS011;2501;51.214;6.768;2023-06-22T14:06:38;32.23;;;20.50;;
4971;SDS011;2501;51.214;6.768;2023-06-22T14:09:06;31.30;;;21.65;;
4971;SDS011;2501;51.214;6.768;2023-06-22T14:11:37;34.63;;;20.15;;
4971;SDS011;2501;51.214;6.768;2023-06-22T14:14:06;28.90;;;20.50;;
4971;SDS011;2501;51.214;6.768;2023-06-22T14:16:34;28.35;;;19.60;;
4971;SDS011;2501;51.214;6.768;2023-06-22T14:19:03;32.20;;;20.55;;
4971;SDS011;2501;51.214;6.768;2023-06-22T14:21:31;27.53;;;19.33;;
4971;SDS011;2501;51.214;6.768;2023-06-22T14:24:00;31.05;;;19.63;;
4971;SDS011;2501;51.214;6.768;2023-06-22T14:26:28;27.35;;;19.50;;
4971;SDS011;2501;51.214;6.768;2023-06-22T14:28:59;26.55;;;19.67;;
4971;SDS011;2501;51.214;6.768;2023-06-22T14:31:29;32.80;;;19.90;;
4971;SDS011;2501;51.214;6.768;2023-06-22T14:33:57;29.30;;;20.00;;
4971;SDS011;2501;51.214;6.768;2023-06-22T14:36:26;28.08;;;19.30;;
4971;SDS011;2501;51.214;6.768;2023-06-22T14:38:54;29.13;;;20.23;;
4971;SDS011;2501;51.214;6.768;2023-06-22T14:41:22;27.88;;;19.20;;
4971;SDS011;2501;51.214;6.768;2023-06-22T14:43:51;29.42;;;20.52;;
4971;SDS011;2501;51.214;6.768;2023-06-22T14:46:22;34.17;;;21.05;;
4971;SDS011;2501;51.214;6.768;2023-06-22T14:48:51;30.92;;;21.25;;
4971;SDS011;2501;51.214;6.768;2023-06-22T14:51:19;31.65;;;20.70;;
4971;SDS011;2501;51.214;6.768;2023-06-22T14:53:47;35.22;;;20.27;;
4971;SDS011;2501;51.214;6.768;2023-06-22T14:56:16;29.88;;;20.67;;
4971;SDS011;2501;51.214;6.768;2023-06-22T14:58:45;30.53;;;21.27;;
4971;SDS011;2501;51.214;6.768;2023-06-22T15:01:14;30.40;;;21.17;;
4971;SDS011;2501;51.214;6.768;2023-06-22T15:03:47;30.77;;;20.50;;
4971;SDS011;2501;51.214;6.768;2023-06-22T15:06:15;30.17;;;20.15;;
4971;SDS011;2501;51.214;6.768;2023-06-22T15:08:44;26.00;;;18.67;;
4971;SDS011;2501;51.214;6.768;2023-06-22T15:11:12;24.50;;;17.55;;
4971;SDS011;2501;51.214;6.768;2023-06-22T15:13:41;25.50;;;17.63;;